Time;durP1;ratioP1;P1;durP2;ratioP2;P2;SDS_P1;SDS_P2;PMS_P1;PMS_P2;Temp;Humidity;BMP_temperature;BMP_pressure;BME280_temperature;BME280_humidity;BME280_pressure;Samples;Min_cycle;Max_cycle;Signal;HPM_P1;HPM_P2
2021/06/14 00:00:30;;;;;;;6.35;3.05;;;;;;;9.91;77.46;101217.63;5028857;28;20049;-78
2021/06/14 00:02:57;;;;;;;7.68;2.53;;;;;;;9.84;77.71;101223.59;5031888;28;20049;-78
2021/06/14 00:05:30;;;;;;;5.45;2.22;;;;;;;9.84;77.95;101207.50;5036124;28;20407;-81
2021/06/14 00:07:57;;;;;;;7.45;2.95;;;;;;;10.02;77.12;101215.94;5033261;28;20045;-77
2021/06/14 00:10:27;;;;;;;7.65;2.67;;;;;;;9.96;77.29;101214.59;5028403;28;20049;-78
2021/06/14 00:12:53;;;;;;;8.00;2.90;;;;;;;9.96;77.55;101215.47;5032843;28;20191;-79
2021/06/14 00:15:20;;;;;;;4.57;2.30;;;;;;;9.96;77.52;101217.28;5035001;28;20076;-79
2021/06/14 00:17:46;;;;;;;7.22;2.83;;;;;;;9.96;77.43;101214.59;5034745;28;20041;-78
2021/06/14 00:20:14;;;;;;;9.07;3.08;;;;;;;9.99;77.23;101213.50;5032730;28;20503;-78
2021/06/14 00:22:41;;;;;;;6.78;3.60;;;;;;;9.89;77.81;101213.34;5031920;28;20041;-78
2021/06/14 00:25:10;;;;;;;6.15;2.75;;;;;;;9.86;77.62;101208.22;5024146;28;20053;-80
2021/06/14 00:27:38;;;;;;;7.80;3.00;;;;;;;9.77;77.95;101212.44;5022380;28;20077;-79
2021/06/14 00:30:06;;;;;;;9.40;3.03;;;;;;;9.71;78.09;101210.25;5034519;28;20409;-77
2021/06/14 00:32:33;;;;;;;6.25;3.67;;;;;;;9.66;78.53;101212.41;5035445;28;20049;-77
2021/06/14 00:34:59;;;;;;;8.77;3.05;;;;;;;9.68;78.70;101210.44;5033861;28;20045;-78
2021/06/14 00:37:26;;;;;;;5.90;2.58;;;;;;;9.62;79.12;101217.13;5021109;28;20057;-78
2021/06/14 00:39:52;;;;;;;11.35;3.90;;;;;;;9.59;79.27;101201.28;5030656;28;20061;-79
2021/06/14 00:42:19;;;;;;;8.43;2.65;;;;;;;9.53;79.26;101200.88;5027334;28;20049;-78
2021/06/14 00:44:47;;;;;;;6.70;2.58;;;;;;;9.47;79.50;101207.56;5031243;28;20042;-78
2021/06/14 00:47:13;;;;;;;7.57;3.75;;;;;;;9.44;80.28;101199.72;5030356;28;20092;-79
2021/06/14 00:49:39;;;;;;;5.80;2.50;;;;;;;9.43;79.87;101200.72;5032159;28;20108;-80
2021/06/14 00:52:07;;;;;;;7.45;3.13;;;;;;;9.40;80.19;101202.75;5031810;28;20072;-79
2021/06/14 00:54:33;;;;;;;6.60;3.40;;;;;;;9.36;80.39;101204.81;5033410;28;20060;-78
2021/06/14 00:57:00;;;;;;;6.93;3.20;;;;;;;9.29;80.54;101203.56;5033306;28;20103;-80
2021/06/14 00:59:26;;;;;;;10.45;3.75;;;;;;;9.30;80.29;101199.91;5030849;28;21500;-81
2021/06/14 01:01:54;;;;;;;5.20;2.38;;;;;;;9.21;80.76;101208.59;5027147;28;20550;-77
2021/06/14 01:04:20;;;;;;;12.93;4.07;;;;;;;9.31;80.35;101205.16;5031834;28;20064;-79
2021/06/14 01:06:48;;;;;;;7.43;2.80;;;;;;;9.21;80.88;101205.94;5029991;28;20084;-78
2021/06/14 01:09:14;;;;;;;6.82;3.33;;;;;;;9.18;81.01;101206.16;5033918;28;20492;-78
2021/06/14 01:11:50;;;;;;;10.65;3.45;;;;;;;9.14;80.97;101200.19;5034039;28;20152;-78
2021/06/14 01:14:24;;;;;;;8.15;3.53;;;;;;;9.16;81.33;101202.75;5025512;28;20045;-77
2021/06/14 01:16:59;;;;;;;6.68;3.05;;;;;;;9.05;81.47;101207.06;5032599;28;20053;-79
2021/06/14 01:19:52;;;;;;;8.30;3.27;;;;;;;9.12;81.68;101203.94;5024059;28;20262;-78
2021/06/14 01:22:39;;;;;;;7.40;3.22;;;;;;;9.09;81.59;101203.16;5030858;28;20057;-79
2021/06/14 01:25:10;;;;;;;6.90;3.60;;;;;;;9.12;81.61;101195.91;5031957;28;20045;-81
2021/06/14 01:27:43;;;;;;;8.30;3.25;;;;;;;9.08;81.63;101190.75;5031949;28;20123;-78
2021/06/14 01:30:12;;;;;;;9.68;2.90;;;;;;;9.05;81.67;101184.78;5031031;28;20057;-80
2021/06/14 01:32:40;;;;;;;6.00;2.78;;;;;;;9.01;82.14;101192.19;5031290;28;20053;-79
2021/06/14 01:35:10;;;;;;;5.75;2.50;;;;;;;9.02;82.24;101195.72;5033576;28;20053;-79
2021/06/14 01:37:41;;;;;;;8.20;3.15;;;;;;;8.99;82.28;101186.06;5036566;28;20053;-79
2021/06/14 01:40:10;;;;;;;5.32;2.88;;;;;;;9.02;82.16;101185.00;5034770;28;20046;-79
2021/06/14 01:42:39;;;;;;;6.82;3.20;;;;;;;8.87;82.58;101189.63;5033592;28;20495;-78
2021/06/14 01:45:07;;;;;;;7.88;2.90;;;;;;;8.84;82.58;101187.16;5024084;28;20041;-79
2021/06/14 01:47:34;;;;;;;4.38;2.60;;;;;;;8.80;83.03;101185.69;5032454;28;20330;-77
2021/06/14 01:50:01;;;;;;;8.25;2.72;;;;;;;8.75;82.94;101182.47;5027414;28;20045;-78
2021/06/14 01:52:28;;;;;;;6.38;2.45;;;;;;;8.66;83.37;101175.13;5031040;28;20080;-79
2021/06/14 01:54:55;;;;;;;6.10;2.80;;;;;;;8.57;83.68;101175.78;5026117;28;20054;-79
2021/06/14 01:57:22;;;;;;;4.43;2.38;;;;;;;8.50;83.65;101168.16;5026692;28;20057;-79
2021/06/14 01:59:53;;;;;;;6.68;2.83;;;;;;;8.46;84.05;101166.66;5033501;28;20105;-79
2021/06/14 02:02:21;;;;;;;6.53;3.03;;;;;;;8.40;84.21;101169.75;5032815;28;20054;-79
2021/06/14 02:04:50;;;;;;;5.95;2.78;;;;;;;8.29;84.17;101169.66;5036491;28;20053;-79
2021/06/14 02:07:19;;;;;;;4.47;2.95;;;;;;;8.18;84.60;101166.88;5028658;28;20049;-78
2021/06/14 02:09:46;;;;;;;9.10;2.75;;;;;;;8.12;84.71;101167.28;5027324;28;20058;-79
2021/06/14 02:12:13;;;;;;;5.10;2.45;;;;;;;8.08;85.17;101158.63;5035030;28;20500;-79
2021/06/14 02:14:42;;;;;;;5.65;2.97;;;;;;;8.04;85.43;101170.47;5026807;28;20049;-79
2021/06/14 02:17:12;;;;;;;6.15;2.80;;;;;;;8.05;85.25;101168.66;5028466;28;20041;-80
2021/06/14 02:19:39;;;;;;;5.65;2.50;;;;;;;8.05;85.12;101160.63;5032797;28;20050;-78
2021/06/14 02:22:06;;;;;;;7.93;3.50;;;;;;;7.98;84.99;101165.56;5031219;28;20055;-78
2021/06/14 02:24:33;;;;;;;7.13;3.30;;;;;;;7.85;85.60;101165.53;5033338;28;20550;-78
2021/06/14 02:27:01;;;;;;;8.20;3.50;;;;;;;7.74;86.26;101167.22;5033376;28;20144;-79
2021/06/14 02:29:28;;;;;;;7.22;3.20;;;;;;;7.70;86.09;101158.56;5030807;28;20116;-80
2021/06/14 02:31:54;;;;;;;10.57;3.05;;;;;;;7.71;86.44;101167.44;5032367;28;20053;-78
2021/06/14 02:34:22;;;;;;;6.88;2.90;;;;;;;7.76;85.93;101163.50;5025166;28;20110;-79
2021/06/14 02:36:50;;;;;;;6.93;2.45;;;;;;;7.76;85.83;101160.81;5031488;28;20076;-78
2021/06/14 02:39:22;;;;;;;7.90;3.25;;;;;;;7.75;85.53;101158.25;5025043;28;20498;-79
2021/06/14 02:41:48;;;;;;;6.18;2.75;;;;;;;7.74;85.41;101160.06;5033188;28;20119;-79
2021/06/14 02:44:16;;;;;;;9.43;3.20;;;;;;;7.70;85.98;101155.06;5023517;28;20049;-79
2021/06/14 02:46:44;;;;;;;5.82;3.03;;;;;;;7.68;86.10;101155.13;5032695;28;20491;-79
2021/06/14 02:49:12;;;;;;;6.55;2.67;;;;;;;7.60;86.58;101157.47;5030912;28;20132;-78
2021/06/14 02:51:41;;;;;;;5.90;2.67;;;;;;;7.58;86.64;101156.72;5033054;28;20500;-79
2021/06/14 02:54:12;;;;;;;5.68;3.00;;;;;;;7.57;87.09;101155.00;5033802;28;20045;-77
2021/06/14 02:56:40;;;;;;;7.55;2.83;;;;;;;7.53;85.97;101148.16;5030334;28;20682;-78
2021/06/14 02:59:07;;;;;;;5.65;2.70;;;;;;;7.56;86.48;101151.47;5035919;28;20050;-79
2021/06/14 03:01:35;;;;;;;5.28;2.80;;;;;;;7.55;86.60;101144.41;5036049;28;20589;-76
2021/06/14 03:04:04;;;;;;;4.32;2.58;;;;;;;7.59;86.53;101153.09;5040468;28;20061;-78
2021/06/14 03:06:31;;;;;;;6.25;3.25;;;;;;;7.61;85.70;101149.34;5030964;28;20087;-77
2021/06/14 03:09:00;;;;;;;5.65;2.72;;;;;;;7.61;85.75;101156.53;5038021;28;20499;-78
2021/06/14 03:11:29;;;;;;;9.27;2.80;;;;;;;7.58;86.10;101151.38;5042393;28;20107;-77
2021/06/14 03:13:58;;;;;;;6.95;3.55;;;;;;;7.61;86.18;101152.03;5039955;28;20124;-77
2021/06/14 03:16:26;;;;;;;8.57;2.63;;;;;;;7.62;86.13;101148.41;5039111;28;20052;-78
2021/06/14 03:18:53;;;;;;;8.85;3.40;;;;;;;7.63;86.22;101141.22;5031900;28;20100;-77
2021/06/14 03:21:21;;;;;;;6.60;2.72;;;;;;;7.65;86.33;101135.78;5027367;28;20060;-78
2021/06/14 03:23:49;;;;;;;7.97;2.92;;;;;;;7.63;86.02;101141.22;5033298;28;20413;-81
2021/06/14 03:26:19;;;;;;;6.38;3.63;;;;;;;7.60;86.28;101136.09;5033622;28;20082;-78
2021/06/14 03:28:47;;;;;;;5.32;2.90;;;;;;;7.65;86.04;101136.63;5026899;28;20056;-76
2021/06/14 03:31:16;;;;;;;7.75;2.80;;;;;;;7.69;86.08;101130.13;5031575;28;20568;-77
2021/06/14 03:33:47;;;;;;;6.05;2.60;;;;;;;7.78;86.46;101131.31;5033989;28;20057;-78
2021/06/14 03:36:16;;;;;;;7.30;2.30;;;;;;;7.88;85.53;101129.72;5030129;28;20488;-77
2021/06/14 03:38:45;;;;;;;6.95;2.42;;;;;;;7.95;85.19;101124.81;5031570;28;20119;-77
2021/06/14 03:41:11;;;;;;;5.45;2.22;;;;;;;7.98;84.79;101129.97;5035046;28;20068;-77
2021/06/14 03:43:39;;;;;;;7.65;2.67;;;;;;;8.04;84.39;101124.16;5025445;28;20045;-78
2021/06/14 03:46:06;;;;;;;5.05;3.03;;;;;;;8.09;84.70;101127.41;5030380;28;20113;-78
2021/06/14 03:48:33;;;;;;;7.82;3.38;;;;;;;8.20;84.44;101116.81;5026558;28;20072;-79
2021/06/14 03:50:59;;;;;;;5.30;3.10;;;;;;;8.28;84.42;101122.44;5033051;28;20045;-79
2021/06/14 03:53:31;;;;;;;5.80;2.67;;;;;;;8.36;83.73;101122.81;5032256;28;20053;-77
2021/06/14 03:55:58;;;;;;;11.68;3.38;;;;;;;8.42;83.57;101133.09;5031805;28;20077;-77
2021/06/14 03:58:24;;;;;;;4.05;2.22;;;;;;;8.49;83.39;101126.31;5033437;28;20103;-78
2021/06/14 04:00:52;;;;;;;6.35;2.25;;;;;;;8.59;83.20;101129.19;5033579;28;20045;-79
2021/06/14 04:03:19;;;;;;;5.50;2.85;;;;;;;8.66;83.13;101133.16;5036940;28;20108;-77
2021/06/14 04:05:45;;;;;;;5.63;2.45;;;;;;;8.72;82.82;101130.03;5034416;28;20065;-78
2021/06/14 04:08:12;;;;;;;6.35;2.90;;;;;;;8.80;82.94;101124.13;5020951;28;20045;-78
2021/06/14 04:10:40;;;;;;;7.90;3.60;;;;;;;8.87;82.67;101121.84;5030062;28;20104;-78
2021/06/14 04:13:07;;;;;;;6.30;3.25;;;;;;;8.94;82.59;101123.97;5032003;28;20140;-77
2021/06/14 04:15:34;;;;;;;8.63;2.97;;;;;;;9.03;82.51;101123.31;5033479;28;20065;-80
2021/06/14 04:18:02;;;;;;;8.43;4.05;;;;;;;9.14;82.42;101116.31;5034364;28;20053;-80
2021/06/14 04:20:28;;;;;;;8.05;3.65;;;;;;;9.26;82.54;101113.56;5029402;28;20053;-78
2021/06/14 04:22:55;;;;;;;6.72;3.15;;;;;;;9.38;81.98;101120.69;5036163;28;20053;-79
2021/06/14 04:25:21;;;;;;;6.22;2.95;;;;;;;9.51;81.37;101123.28;5031212;28;20041;-80
2021/06/14 04:27:48;;;;;;;5.28;2.72;;;;;;;9.64;80.97;101115.16;5034864;28;20614;-79
2021/06/14 04:30:16;;;;;;;7.13;2.90;;;;;;;9.75;80.89;101109.84;5028583;28;20095;-79
2021/06/14 04:32:44;;;;;;;7.28;3.35;;;;;;;9.88;80.54;101115.13;5034202;28;20255;-80
2021/06/14 04:35:13;;;;;;;6.85;2.70;;;;;;;10.00;80.13;101108.78;5034956;28;20340;-78
2021/06/14 04:37:40;;;;;;;7.75;2.72;;;;;;;10.15;80.03;101107.59;5034293;28;20045;-77
2021/06/14 04:40:09;;;;;;;9.43;3.10;;;;;;;10.30;79.58;101110.06;5032954;28;20541;-79
2021/06/14 04:42:36;;;;;;;8.85;3.20;;;;;;;10.47;79.46;101107.75;5034140;28;20045;-79
2021/06/14 04:45:04;;;;;;;8.48;3.50;;;;;;;10.63;79.32;101103.84;5032426;28;20050;-78
2021/06/14 04:47:30;;;;;;;9.00;3.53;;;;;;;10.83;79.66;101097.72;5024608;28;20053;-79
2021/06/14 04:50:00;;;;;;;8.43;3.40;;;;;;;11.05;79.23;101094.97;5033895;28;20084;-78
2021/06/14 04:52:28;;;;;;;7.00;2.33;;;;;;;11.25;78.37;101098.72;5031609;28;20119;-78
2021/06/14 04:54:56;;;;;;;6.38;2.70;;;;;;;11.47;77.93;101105.81;5028795;28;20054;-78
2021/06/14 04:57:22;;;;;;;5.85;2.72;;;;;;;11.69;77.83;101099.47;5033556;28;20061;-80
2021/06/14 04:59:49;;;;;;;6.70;3.15;;;;;;;11.91;77.56;101106.59;5030836;28;20041;-78
2021/06/14 05:02:16;;;;;;;9.75;3.40;;;;;;;12.16;77.24;101102.63;5023289;28;20096;-76
2021/06/14 05:04:42;;;;;;;6.38;4.55;;;;;;;12.34;76.54;101106.44;5031226;28;20060;-81
2021/06/14 05:07:08;;;;;;;9.18;3.30;;;;;;;12.53;76.33;101109.19;5032597;28;20049;-78
2021/06/14 05:09:36;;;;;;;5.85;2.63;;;;;;;12.69;76.22;101108.69;5026530;28;20037;-79
2021/06/14 05:12:03;;;;;;;7.13;2.70;;;;;;;12.86;75.86;101105.31;5031891;28;20056;-80
2021/06/14 05:14:30;;;;;;;6.32;2.42;;;;;;;13.02;75.35;101114.72;5024237;28;20045;-80
2021/06/14 05:16:56;;;;;;;5.65;2.22;;;;;;;13.19;72.12;101115.94;5032128;28;20539;-78
2021/06/14 05:19:22;;;;;;;6.80;2.50;;;;;;;13.43;69.05;101122.63;5031594;28;20519;-78
2021/06/14 05:21:49;;;;;;;5.70;2.40;;;;;;;13.67;69.14;101114.09;5025200;28;20064;-79
2021/06/14 05:24:16;;;;;;;5.25;2.38;;;;;;;13.92;65.61;101109.09;5031395;28;20049;-78
2021/06/14 05:26:43;;;;;;;7.82;3.03;;;;;;;14.14;66.68;101121.41;5033012;28;20053;-78
2021/06/14 05:29:10;;;;;;;10.27;3.03;;;;;;;14.32;64.74;101116.94;5031828;28;20503;-77
2021/06/14 05:31:36;;;;;;;8.50;2.45;;;;;;;14.49;62.90;101124.31;5032756;28;20132;-78
2021/06/14 05:34:03;;;;;;;4.22;2.10;;;;;;;14.70;61.08;101121.38;5033839;28;20107;-77
2021/06/14 05:36:29;;;;;;;6.30;2.72;;;;;;;14.91;61.40;101121.97;5033960;28;20045;-78
2021/06/14 05:38:56;;;;;;;4.18;2.05;;;;;;;15.05;59.74;101119.78;5035687;28;20214;-78
2021/06/14 05:41:22;;;;;;;8.98;2.88;;;;;;;15.21;58.90;101120.78;5035150;28;20092;-78
2021/06/14 05:43:50;;;;;;;5.50;2.60;;;;;;;15.37;57.68;101113.84;5033810;28;20049;-77
2021/06/14 05:46:16;;;;;;;8.90;2.75;;;;;;;15.45;57.34;101113.94;5034037;28;20046;-78
2021/06/14 05:48:43;;;;;;;9.95;3.00;;;;;;;15.57;57.73;101122.66;5035291;28;20038;-79
2021/06/14 05:51:09;;;;;;;6.60;2.90;;;;;;;15.62;57.89;101112.25;5034203;28;20285;-78
2021/06/14 05:53:36;;;;;;;8.77;3.00;;;;;;;15.65;57.33;101115.50;5034354;28;20108;-78
2021/06/14 05:56:03;;;;;;;8.82;2.80;;;;;;;15.75;57.31;101116.28;5034587;28;20088;-78
2021/06/14 05:58:29;;;;;;;9.40;3.15;;;;;;;15.81;57.43;101122.91;5033200;28;20049;-78
2021/06/14 06:00:57;;;;;;;9.13;3.20;;;;;;;15.89;58.56;101120.28;5034210;28;20072;-78
2021/06/14 06:03:24;;;;;;;7.32;2.30;;;;;;;16.04;58.12;101121.38;5033714;28;20052;-77
2021/06/14 06:05:50;;;;;;;6.90;2.10;;;;;;;16.19;57.50;101121.66;5035275;28;20084;-78
2021/06/14 06:08:16;;;;;;;5.07;2.65;;;;;;;16.34;56.59;101121.94;5034618;28;20050;-77
2021/06/14 06:10:43;;;;;;;6.22;2.63;;;;;;;16.36;56.71;101123.47;5030036;28;20054;-79
2021/06/14 06:13:09;;;;;;;8.13;3.20;;;;;;;16.49;56.82;101120.31;5028138;28;20107;-77
2021/06/14 06:15:35;;;;;;;9.45;3.22;;;;;;;16.41;56.08;101117.56;5030066;28;20045;-78
2021/06/14 06:18:04;;;;;;;10.73;3.22;;;;;;;16.55;55.29;101111.53;5032390;28;20146;-79
2021/06/14 06:20:30;;;;;;;9.98;3.75;;;;;;;16.72;55.52;101117.94;5032181;28;20534;-78
2021/06/14 06:22:56;;;;;;;8.82;2.92;;;;;;;16.97;55.19;101112.59;5031124;28;20547;-78
2021/06/14 06:25:25;;;;;;;7.28;2.60;;;;;;;17.19;55.29;101110.13;5029973;28;20053;-79
2021/06/14 06:27:52;;;;;;;5.47;1.95;;;;;;;17.42;54.67;101106.78;5031339;28;20398;-78
2021/06/14 06:30:21;;;;;;;10.20;3.17;;;;;;;17.23;52.88;101105.19;5032784;28;20558;-79
2021/06/14 06:32:48;;;;;;;7.65;2.95;;;;;;;17.03;54.04;101114.63;5025746;28;20458;-78
2021/06/14 06:35:17;;;;;;;7.13;3.13;;;;;;;17.18;54.60;101102.16;5032530;28;20140;-79
2021/06/14 06:37:43;;;;;;;9.88;2.92;;;;;;;17.23;53.30;101103.34;5022827;28;20060;-81
2021/06/14 06:40:10;;;;;;;4.68;2.35;;;;;;;17.34;52.27;101104.03;5036709;28;20042;-78
2021/06/14 06:42:37;;;;;;;8.90;2.63;;;;;;;17.57;51.35;101102.38;5033864;28;20053;-79
2021/06/14 06:45:06;;;;;;;15.55;3.55;;;;;;;17.77;50.80;101095.63;5034469;28;20045;-81
2021/06/14 06:47:34;;;;;;;10.02;2.90;;;;;;;17.85;51.03;101093.91;5035782;28;20088;-79
2021/06/14 06:50:01;;;;;;;8.90;3.42;;;;;;;17.67;50.38;101092.19;5033552;28;20115;-77
2021/06/14 06:52:29;;;;;;;9.30;2.80;;;;;;;17.66;51.22;101095.94;5031912;28;20107;-80
2021/06/14 06:54:55;;;;;;;8.07;2.95;;;;;;;17.75;50.69;101089.50;5034655;28;20416;-81
2021/06/14 06:57:22;;;;;;;4.57;2.40;;;;;;;18.01;51.07;101088.47;5033152;28;20470;-80
2021/06/14 06:59:48;;;;;;;7.75;2.60;;;;;;;18.32;51.27;101083.97;5028197;28;20493;-79
2021/06/14 07:02:15;;;;;;;7.22;3.50;;;;;;;18.53;49.39;101091.56;5032963;28;20052;-80
2021/06/14 07:04:41;;;;;;;8.43;3.25;;;;;;;18.49;50.28;101090.22;5018174;28;20064;-77
2021/06/14 07:07:08;;;;;;;6.68;2.88;;;;;;;18.67;50.95;101095.44;5030962;28;20136;-79
2021/06/14 07:09:36;;;;;;;8.02;2.92;;;;;;;18.92;47.31;101099.75;5032678;28;20049;-77
2021/06/14 07:12:02;;;;;;;10.88;2.97;;;;;;;19.05;47.73;101095.59;5030372;28;20045;-81
2021/06/14 07:14:29;;;;;;;7.93;3.20;;;;;;;19.04;47.28;101085.75;5036207;28;20127;-78
2021/06/14 07:16:55;;;;;;;8.20;2.70;;;;;;;19.24;46.59;101081.53;5038030;28;20045;-79
2021/06/14 07:19:22;;;;;;;6.93;1.73;;;;;;;19.21;42.87;101084.63;5040210;28;20488;-79
2021/06/14 07:21:48;;;;;;;4.97;2.30;;;;;;;19.16;43.37;101076.13;5038395;28;20073;-79
2021/06/14 07:24:15;;;;;;;8.90;2.65;;;;;;;19.40;43.58;101092.31;5031202;28;20095;-77
2021/06/14 07:26:43;;;;;;;8.45;2.60;;;;;;;19.61;43.97;101093.56;5040240;28;20049;-78
2021/06/14 07:29:12;;;;;;;7.13;2.75;;;;;;;19.60;44.79;101083.69;5037450;28;20439;-78
2021/06/14 07:31:39;;;;;;;4.72;2.20;;;;;;;19.78;42.98;101089.69;5036424;28;20041;-78
2021/06/14 07:34:08;;;;;;;7.47;2.85;;;;;;;19.97;45.51;101094.59;5037419;28;20049;-79
2021/06/14 07:36:34;;;;;;;5.80;2.70;;;;;;;19.82;44.86;101085.53;5029836;28;20057;-78
2021/06/14 07:39:07;;;;;;;9.10;3.08;;;;;;;19.83;44.99;101087.22;5033301;28;20046;-77
2021/06/14 07:41:34;;;;;;;5.47;2.47;;;;;;;19.98;43.92;101089.97;5034229;28;20451;-80
2021/06/14 07:44:01;;;;;;;9.32;3.17;;;;;;;20.15;43.27;101086.94;5035173;28;20519;-78
2021/06/14 07:46:28;;;;;;;4.82;2.50;;;;;;;20.20;42.16;101077.34;5033107;28;20057;-79
2021/06/14 07:48:54;;;;;;;7.10;2.33;;;;;;;20.25;42.67;101077.63;5034258;28;20427;-79
2021/06/14 07:51:21;;;;;;;5.68;2.45;;;;;;;20.42;42.87;101070.97;5027804;28;20401;-78
2021/06/14 07:53:50;;;;;;;6.10;1.98;;;;;;;20.55;41.06;101071.16;5030677;28;20053;-79
2021/06/14 07:56:18;;;;;;;7.30;2.20;;;;;;;20.22;42.07;101069.81;5032547;28;20065;-79
2021/06/14 07:58:44;;;;;;;5.25;2.03;;;;;;;20.37;42.66;101054.31;5034425;28;20095;-79
2021/06/14 08:01:12;;;;;;;5.65;2.15;;;;;;;20.41;42.04;101063.81;5031224;28;20471;-78
2021/06/14 08:03:39;;;;;;;8.98;2.17;;;;;;;20.42;42.37;101062.81;5031659;28;20045;-77
2021/06/14 08:06:05;;;;;;;4.90;1.75;;;;;;;20.27;41.80;101056.47;5031692;28;20041;-79
2021/06/14 08:08:32;;;;;;;5.53;1.75;;;;;;;20.46;41.28;101055.94;5032643;28;20568;-81
2021/06/14 08:11:00;;;;;;;5.03;2.47;;;;;;;20.53;41.34;101056.88;5034381;28;20053;-79
2021/06/14 08:13:27;;;;;;;5.45;2.08;;;;;;;20.63;39.89;101062.03;5031362;28;20061;-78
2021/06/14 08:15:54;;;;;;;7.13;2.53;;;;;;;20.56;40.11;101064.66;5034483;28;20052;-77
2021/06/14 08:18:32;;;;;;;6.28;2.60;;;;;;;20.72;40.20;101060.91;5036600;28;20046;-78
2021/06/14 08:21:07;;;;;;;6.43;2.50;;;;;;;20.82;40.70;101050.50;5036305;28;20257;-81
2021/06/14 08:26:22;;;;;;;8.10;2.20;;;;;;;20.61;39.76;101047.75;5035895;28;20136;-77
2021/06/14 08:28:49;;;;;;;7.63;2.17;;;;;;;20.64;40.10;101042.75;5036647;28;20128;-82
2021/06/14 08:31:15;;;;;;;10.10;2.30;;;;;;;20.76;40.97;101042.28;5035980;28;20063;-79
2021/06/14 08:33:43;;;;;;;7.22;2.53;;;;;;;20.69;40.25;101040.28;5036088;28;20127;-79
2021/06/14 08:36:10;;;;;;;7.15;2.00;;;;;;;20.82;39.13;101044.22;5036269;28;20054;-79
2021/06/14 08:38:36;;;;;;;7.45;2.40;;;;;;;20.87;39.59;101048.06;5035054;28;20048;-77
2021/06/14 08:41:03;;;;;;;6.25;1.95;;;;;;;20.82;39.99;101038.75;5031925;28;20072;-77
2021/06/14 08:43:49;;;;;;;8.93;2.60;;;;;;;21.02;38.67;101039.84;5033391;28;20052;-78
2021/06/14 08:46:15;;;;;;;4.85;1.80;;;;;;;21.03;38.97;101030.63;5035832;28;20064;-78
2021/06/14 08:48:44;;;;;;;5.22;1.83;;;;;;;21.15;40.18;101028.22;5033439;28;20072;-78
2021/06/14 08:51:12;;;;;;;7.78;2.00;;;;;;;21.25;40.97;101029.63;5030581;28;20081;-77
2021/06/14 08:53:39;;;;;;;5.45;2.22;;;;;;;20.87;40.16;101022.69;5029364;28;20053;-77
2021/06/14 08:56:06;;;;;;;6.03;2.20;;;;;;;20.99;39.09;101018.41;5033757;28;20088;-77
2021/06/14 08:58:33;;;;;;;6.40;2.00;;;;;;;21.09;40.00;101018.94;5029722;28;20046;-78
2021/06/14 09:01:00;;;;;;;5.50;2.42;;;;;;;21.40;39.21;101015.06;5033814;28;20096;-78
2021/06/14 09:03:27;;;;;;;5.75;2.08;;;;;;;21.50;37.42;101004.63;5033598;28;20052;-78
2021/06/14 09:05:55;;;;;;;3.65;1.90;;;;;;;21.63;39.37;101007.47;5035440;28;20068;-77
2021/06/14 09:08:24;;;;;;;8.35;2.08;;;;;;;21.77;39.17;101014.72;5034300;28;20053;-77
2021/06/14 09:10:52;;;;;;;6.50;2.50;;;;;;;21.83;37.83;101004.91;5030419;28;20124;-77
2021/06/14 09:13:21;;;;;;;3.78;2.15;;;;;;;21.88;39.86;101005.13;5029086;28;20053;-77
2021/06/14 09:15:51;;;;;;;3.80;2.13;;;;;;;21.89;39.70;101018.59;5027040;28;20053;-76
2021/06/14 09:18:20;;;;;;;5.00;2.38;;;;;;;21.86;39.96;101005.34;5028945;28;20265;-77
2021/06/14 09:20:56;;;;;;;6.10;2.65;;;;;;;21.88;37.15;100999.69;5029968;28;20041;-77
2021/06/14 09:23:23;;;;;;;7.35;2.58;;;;;;;21.78;37.85;101001.91;5031405;28;20045;-78
2021/06/14 09:25:51;;;;;;;4.90;2.33;;;;;;;21.76;38.58;100998.53;5028567;28;20053;-78
2021/06/14 09:28:17;;;;;;;6.63;2.50;;;;;;;21.48;37.74;100993.06;5027022;28;20392;-77
2021/06/14 09:30:44;;;;;;;6.22;2.28;;;;;;;21.47;38.51;100980.47;5029862;28;20562;-78
2021/06/14 09:33:22;;;;;;;5.40;2.45;;;;;;;21.55;38.92;100975.72;5027760;28;20106;-79
2021/06/14 09:35:48;;;;;;;7.95;2.70;;;;;;;21.43;37.95;100976.41;5031390;28;20056;-81
2021/06/14 09:38:18;;;;;;;5.90;2.60;;;;;;;21.39;38.11;100967.78;5029178;28;20100;-79
2021/06/14 09:40:48;;;;;;;6.90;2.30;;;;;;;21.74;40.62;100960.50;5028607;28;20049;-76
2021/06/14 09:43:23;;;;;;;9.85;2.60;;;;;;;21.95;38.50;100956.00;5030745;28;20112;-78
2021/06/14 09:45:49;;;;;;;;;;;;;;;22.13;36.71;100938.03;5033303;28;20061;-79
2021/06/14 09:48:31;;;;;;;4.63;2.05;;;;;;;22.29;37.51;100928.66;5034711;28;19921;-81
2021/06/14 09:51:00;;;;;;;6.82;2.00;;;;;;;22.30;38.51;100935.81;5033297;28;20048;-77
2021/06/14 09:53:34;;;;;;;6.10;2.50;;;;;;;22.55;39.90;100927.91;5033073;28;20045;-79
2021/06/14 09:56:14;;;;;;;8.40;2.78;;;;;;;22.58;38.04;100927.50;5021145;28;20050;-76
2021/06/14 09:58:41;;;;;;;9.18;3.13;;;;;;;22.44;39.72;100923.88;5026780;28;20042;-79
2021/06/14 10:01:08;;;;;;;7.18;2.40;;;;;;;22.43;37.64;100922.19;5029142;28;20515;-79
2021/06/14 10:03:41;;;;;;;5.65;2.67;;;;;;;22.75;38.81;100927.97;5027003;28;20127;-83
2021/06/14 10:06:07;;;;;;;7.93;3.20;;;;;;;22.58;38.47;100922.03;5029529;28;20172;-79
2021/06/14 10:08:36;;;;;;;6.25;2.35;;;;;;;22.43;37.75;100916.72;5030270;28;20045;-78
2021/06/14 10:11:06;;;;;;;5.65;2.25;;;;;;;22.76;36.93;100922.28;5028902;28;20045;-78
2021/06/14 10:13:33;;;;;;;8.55;2.95;;;;;;;22.80;37.94;100917.22;5023917;28;20041;-81
2021/06/14 10:16:01;;;;;;;4.57;2.30;;;;;;;23.04;36.73;100916.66;5030220;28;20505;-80
2021/06/14 10:18:36;;;;;;;5.57;2.70;;;;;;;22.96;35.65;100914.13;5030763;28;20051;-79
2021/06/14 10:21:05;;;;;;;8.88;2.95;;;;;;;23.19;37.38;100904.66;5028482;28;20778;-80
2021/06/14 10:23:32;;;;;;;5.43;2.33;;;;;;;23.41;38.02;100908.03;5034015;28;20054;-82
2021/06/14 10:26:00;;;;;;;4.95;2.20;;;;;;;23.27;36.24;100904.44;5026147;28;20280;-81
2021/06/14 10:28:27;;;;;;;4.47;1.88;;;;;;;23.05;36.09;100893.72;5028877;28;20073;-77
2021/06/14 10:30:54;;;;;;;7.03;2.40;;;;;;;23.02;36.64;100885.91;5022137;28;20050;-79
2021/06/14 10:33:23;;;;;;;6.80;2.50;;;;;;;23.16;35.69;100883.19;5027092;28;20080;-76
2021/06/14 10:35:52;;;;;;;6.20;2.60;;;;;;;23.41;37.14;100878.72;5028559;28;20075;-78
2021/06/14 10:38:19;;;;;;;4.63;2.28;;;;;;;23.63;35.42;100882.94;5030393;28;20046;-79
2021/06/14 10:40:46;;;;;;;5.22;2.20;;;;;;;23.58;35.05;100874.53;5028105;28;20057;-78
2021/06/14 10:43:14;;;;;;;5.85;2.30;;;;;;;23.67;35.48;100863.31;5028996;28;20334;-79
2021/06/14 10:45:41;;;;;;;3.97;2.35;;;;;;;23.66;35.34;100872.59;5029023;28;20492;-81
2021/06/14 10:48:10;;;;;;;6.63;2.83;;;;;;;23.49;34.70;100862.06;5028394;28;20046;-78
2021/06/14 10:50:42;;;;;;;5.22;2.33;;;;;;;23.44;37.77;100872.84;5019878;28;20046;-78
2021/06/14 10:53:09;;;;;;;3.85;2.05;;;;;;;23.19;35.92;100864.41;5020408;28;20095;-77
2021/06/14 10:55:39;;;;;;;5.78;2.67;;;;;;;23.18;38.38;100854.53;5028781;28;20049;-78
2021/06/14 10:58:16;;;;;;;5.03;2.80;;;;;;;23.45;37.31;100862.72;5027070;28;20073;-77
2021/06/14 11:00:43;;;;;;;6.32;2.50;;;;;;;23.86;37.79;100843.25;5020502;28;20049;-78
2021/06/14 11:03:09;;;;;;;9.57;2.40;;;;;;;23.71;34.78;100856.38;5021898;28;20133;-77
2021/06/14 11:05:42;;;;;;;7.40;2.38;;;;;;;23.68;36.64;100838.47;5025066;28;20680;-77
2021/06/14 11:08:16;;;;;;;7.25;2.67;;;;;;;23.92;36.09;100839.66;5027308;28;20518;-78
2021/06/14 11:10:44;;;;;;;5.50;2.17;;;;;;;24.09;35.41;100838.06;5024305;28;20041;-77
2021/06/14 11:13:13;;;;;;;5.95;2.75;;;;;;;24.01;35.44;100834.75;5028667;28;20076;-77
2021/06/14 11:15:43;;;;;;;6.50;2.58;;;;;;;24.17;37.34;100840.56;5031298;28;20049;-77
2021/06/14 11:18:21;;;;;;;5.13;2.05;;;;;;;24.23;35.54;100833.38;5027696;28;20077;-77
2021/06/14 11:20:49;;;;;;;6.55;2.45;;;;;;;24.29;34.47;100829.75;5024157;28;20107;-75
2021/06/14 11:23:22;;;;;;;4.22;2.45;;;;;;;24.50;36.61;100823.94;5031023;28;20053;-77
2021/06/14 11:25:49;;;;;;;4.50;2.47;;;;;;;24.59;35.06;100810.78;5031399;28;20115;-77
2021/06/14 11:28:31;;;;;;;6.72;2.58;;;;;;;24.46;36.41;100810.88;5033992;28;20049;-78
2021/06/14 11:31:00;;;;;;;10.15;3.10;;;;;;;24.11;35.31;100810.44;5025820;28;20041;-77
2021/06/14 11:33:29;;;;;;;6.05;2.72;;;;;;;24.34;35.93;100813.50;5024437;28;20045;-78
2021/06/14 11:35:56;;;;;;;6.50;2.75;;;;;;;24.60;36.49;100803.41;5031588;28;20053;-78